createdAt,value
2018-05-08T00:00:20.866Z,1010.25
2018-05-08T00:01:30.311Z,1010.27
2018-05-08T00:02:39.490Z,1010.26
2018-05-08T00:03:48.917Z,1010.23
2018-05-08T00:04:58.596Z,1010.24
2018-05-08T00:06:08.289Z,1010.25
2018-05-08T00:07:17.186Z,1010.22
2018-05-08T00:08:26.122Z,1010.19
2018-05-08T00:09:35.566Z,1010.22
2018-05-08T00:10:45.001Z,1010.19
2018-05-08T00:11:54.688Z,1010.2
2018-05-08T00:13:04.389Z,1010.15
2018-05-08T00:14:13.281Z,1010.17
2018-05-08T00:15:22.958Z,1010.17
2018-05-08T00:16:32.751Z,1010.16
2018-05-08T00:17:41.922Z,1010.11
2018-05-08T00:18:51.906Z,1010.12
2018-05-08T00:20:00.798Z,1010.12
2018-05-08T00:21:10.241Z,1010.08
2018-05-08T00:22:19.689Z,1010.1
2018-05-08T00:23:29.625Z,1010.11
2018-05-08T00:24:39.306Z,1010.08
2018-05-08T00:25:48.220Z,1010.09
2018-05-08T00:26:57.392Z,1010.06
2018-05-08T00:28:07.112Z,1010.04
2018-05-08T00:29:16.275Z,1010.07
2018-05-08T00:30:25.725Z,1010.06
2018-05-08T00:31:34.640Z,1010.04
2018-05-08T00:32:43.813Z,1010.03
2018-05-08T00:33:53.487Z,1010.01
2018-05-08T00:35:02.129Z,1010
2018-05-08T00:36:11.566Z,1009.98
2018-05-08T00:37:20.503Z,1009.97
2018-05-08T00:38:30.206Z,1009.94
2018-05-08T00:39:39.633Z,1009.97
2018-05-08T00:40:48.823Z,1009.97
2018-05-08T00:41:58.507Z,1009.91
2018-05-08T00:43:08.184Z,1009.9
2018-05-08T00:44:17.370Z,1009.86
2018-05-08T00:45:26.812Z,1009.85
2018-05-08T00:46:35.969Z,1009.82
2018-05-08T00:47:45.647Z,1009.79
2018-05-08T00:48:55.583Z,1009.79
2018-05-08T00:50:04.517Z,1009.81
2018-05-08T00:51:13.757Z,1009.78
2018-05-08T00:52:23.183Z,1009.79
2018-05-08T00:53:32.336Z,1009.73
2018-05-08T00:54:41.784Z,1009.77
2018-05-08T00:55:51.224Z,1009.73
2018-05-08T00:57:00.386Z,1009.73
2018-05-08T00:58:09.827Z,1009.73
2018-05-08T00:59:18.474Z,1009.71
2018-05-08T01:00:28.155Z,1009.68
2018-05-08T01:03:19.605Z,1009.65
2018-05-08T01:04:29.344Z,1009.63
2018-05-08T01:05:38.253Z,1009.62
2018-05-08T01:06:47.930Z,1009.64
2018-05-08T01:07:57.373Z,1009.64
2018-05-08T01:09:07.070Z,1009.63
2018-05-08T01:10:16.479Z,1009.65
2018-05-08T01:11:25.652Z,1009.63
2018-05-08T01:12:34.923Z,1009.61
2018-05-08T01:13:44.690Z,1009.62
2018-05-08T01:14:54.613Z,1009.61
2018-05-08T01:16:04.065Z,1009.61
2018-05-08T01:17:13.484Z,1009.6
2018-05-08T01:18:23.445Z,1009.65
2018-05-08T01:19:32.888Z,1009.66
2018-05-08T01:20:42.618Z,1009.65
2018-05-08T01:21:51.532Z,1009.69
2018-05-08T01:23:00.687Z,1009.67
2018-05-08T01:24:10.123Z,1009.67
2018-05-08T01:25:19.551Z,1009.64
2018-05-08T01:26:28.998Z,1009.69
2018-05-08T01:27:38.697Z,1009.68
2018-05-08T01:28:47.857Z,1009.68
2018-05-08T01:29:57.564Z,1009.7
2018-05-08T01:31:06.825Z,1009.69
2018-05-08T01:32:16.008Z,1009.7
2018-05-08T01:33:25.160Z,1009.66
2018-05-08T01:34:34.077Z,1009.66
2018-05-08T01:35:43.511Z,1009.69
2018-05-08T01:36:53.189Z,1009.66
2018-05-08T01:38:02.079Z,1009.64
2018-05-08T01:39:11.836Z,1009.61
2018-05-08T01:40:21.526Z,1009.61
2018-05-08T01:41:30.949Z,1009.62
2018-05-08T01:42:39.887Z,1009.6
2018-05-08T01:43:49.379Z,1009.56
2018-05-08T01:44:58.552Z,1009.54
2018-05-08T01:46:07.976Z,1009.53
2018-05-08T01:47:17.382Z,1009.51
2018-05-08T01:48:26.547Z,1009.53
2018-05-08T01:49:36.325Z,1009.48
2018-05-08T01:50:45.778Z,1009.54
2018-05-08T01:51:55.468Z,1009.53
2018-05-08T01:53:04.882Z,1009.58
2018-05-08T01:54:14.616Z,1009.52
2018-05-08T01:55:23.771Z,1009.53
2018-05-08T01:56:33.193Z,1009.5
2018-05-08T01:57:42.633Z,1009.49
2018-05-08T01:58:52.092Z,1009.49
2018-05-08T02:00:01.263Z,1009.49
2018-05-08T02:01:10.711Z,1009.47
2018-05-08T02:02:20.462Z,1009.45
2018-05-08T02:03:29.948Z,1009.4
2018-05-08T02:04:39.380Z,1009.42
2018-05-08T02:05:49.086Z,1009.41
2018-05-08T02:06:58.505Z,1009.42
2018-05-08T02:08:07.949Z,1009.43
2018-05-08T02:09:17.398Z,1009.41
2018-05-08T02:10:26.572Z,1009.43
2018-05-08T02:11:36.244Z,1009.36
2018-05-08T02:12:45.417Z,1009.37
2018-05-08T02:13:54.387Z,1009.35
2018-05-08T02:15:04.087Z,1009.34
2018-05-08T02:16:13.825Z,1009.3
2018-05-08T02:17:23.249Z,1009.27
2018-05-08T02:18:32.917Z,1009.31
2018-05-08T02:19:42.947Z,1009.27
2018-05-08T02:20:52.104Z,1009.27
2018-05-08T02:22:01.817Z,1009.25
2018-05-08T02:23:11.273Z,1009.26
2018-05-08T02:24:20.740Z,1009.2
2018-05-08T02:25:29.938Z,1009.23
2018-05-08T02:26:39.396Z,1009.2
2018-05-08T02:27:49.098Z,1009.18
2018-05-08T02:28:58.768Z,1009.14
2018-05-08T02:30:07.935Z,1009.19
2018-05-08T02:31:17.385Z,1009.17
2018-05-08T02:32:27.365Z,1009.15
2018-05-08T02:33:37.056Z,1009.14
2018-05-08T02:34:46.473Z,1009.13
2018-05-08T02:35:55.927Z,1009.1
2018-05-08T02:37:05.408Z,1009.09
2018-05-08T02:38:14.595Z,1009.08
2018-05-08T02:39:24.065Z,1009.07
2018-05-08T02:40:33.555Z,1009.13
2018-05-08T02:41:43.308Z,1009.09
2018-05-08T02:42:53.083Z,1009.09
2018-05-08T02:44:02.774Z,1009.12
2018-05-08T02:45:12.536Z,1009.13
2018-05-08T02:46:22.227Z,1009.11
2018-05-08T02:47:31.895Z,1009.09
2018-05-08T02:48:41.392Z,1009.11
2018-05-08T02:49:50.863Z,1009.1
2018-05-08T02:51:00.102Z,1009.08
2018-05-08T02:52:09.567Z,1009.07
2018-05-08T02:53:18.745Z,1009.03
2018-05-08T02:54:28.244Z,1009.03
2018-05-08T02:55:37.944Z,1009.07
2018-05-08T02:56:47.640Z,1009.07
2018-05-08T02:57:56.806Z,1009.06
2018-05-08T02:59:06.226Z,1009.07
2018-05-08T03:00:15.694Z,1009.06
2018-05-08T03:01:25.751Z,1009.04
2018-05-08T03:02:35.302Z,1009.02
2018-05-08T03:03:44.737Z,1009.06
2018-05-08T03:04:53.910Z,1009.08
2018-05-08T03:06:03.618Z,1009.06
2018-05-08T03:07:13.335Z,1009.05
2018-05-08T03:08:23.058Z,1009
2018-05-08T03:09:32.852Z,1009
2018-05-08T03:10:42.825Z,1008.99
2018-05-08T03:11:52.285Z,1008.99
2018-05-08T03:13:01.838Z,1009.01
2018-05-08T03:14:11.276Z,1009.01
2018-05-08T03:15:20.445Z,1009.05
2018-05-08T03:16:29.611Z,1009.04
2018-05-08T03:17:39.298Z,1009.05
2018-05-08T03:18:48.498Z,1009.05
2018-05-08T03:19:57.416Z,1009.04
2018-05-08T03:21:06.844Z,1009.1
2018-05-08T03:22:16.389Z,1009.08
2018-05-08T03:23:26.164Z,1009.11
2018-05-08T03:24:35.858Z,1009.1
2018-05-08T03:25:45.528Z,1009.1
2018-05-08T03:26:55.439Z,1009.07
2018-05-08T03:28:05.144Z,1009.06
2018-05-08T03:29:14.574Z,1009.05
2018-05-08T03:30:24.019Z,1009.01
2018-05-08T03:31:33.472Z,1009.04
2018-05-08T03:32:43.413Z,1009.01
2018-05-08T03:33:53.007Z,1009.06
2018-05-08T03:35:02.690Z,1009.03
2018-05-08T03:36:12.387Z,1009.04
2018-05-08T03:37:21.797Z,1009
2018-05-08T03:38:31.221Z,1009
2018-05-08T03:39:40.896Z,1008.98
2018-05-08T03:40:50.400Z,1008.97
2018-05-08T03:41:59.841Z,1009
2018-05-08T03:43:08.747Z,1008.98
2018-05-08T03:44:17.965Z,1008.97
2018-05-08T03:45:27.662Z,1008.94
2018-05-08T03:46:37.106Z,1008.97
2018-05-08T03:47:46.793Z,1008.93
2018-05-08T03:48:56.488Z,1008.95
2018-05-08T03:50:05.786Z,1008.95
2018-05-08T03:51:14.982Z,1008.9
2018-05-08T03:52:24.663Z,1008.93
2018-05-08T03:53:33.605Z,1008.89
2018-05-08T03:54:42.595Z,1008.86
2018-05-08T03:55:51.779Z,1008.88
2018-05-08T03:57:01.243Z,1008.86
2018-05-08T03:58:10.964Z,1008.85
2018-05-08T03:59:20.636Z,1008.88
2018-05-08T04:00:30.124Z,1008.8
2018-05-08T04:01:39.307Z,1008.85
2018-05-08T04:02:49.044Z,1008.84
2018-05-08T04:03:58.245Z,1008.84
2018-05-08T04:05:07.422Z,1008.83
2018-05-08T04:06:16.883Z,1008.83
2018-05-08T04:07:26.322Z,1008.81
2018-05-08T04:08:35.752Z,1008.83
2018-05-08T04:09:45.214Z,1008.82
2018-05-08T04:10:54.947Z,1008.82
2018-05-08T04:12:04.910Z,1008.78
2018-05-08T04:13:14.392Z,1008.81
2018-05-08T04:14:23.995Z,1008.82
2018-05-08T04:15:34.314Z,1008.75
2018-05-08T04:16:43.828Z,1008.78
2018-05-08T04:17:53.277Z,1008.79
2018-05-08T04:19:02.207Z,1008.77
2018-05-08T04:20:11.383Z,1008.74
2018-05-08T04:21:20.795Z,1008.76
2018-05-08T04:22:30.937Z,1008.74
2018-05-08T04:23:40.112Z,1008.74
2018-05-08T04:24:49.807Z,1008.71
2018-05-08T04:25:58.992Z,1008.72
2018-05-08T04:27:08.422Z,1008.73
2018-05-08T04:28:18.437Z,1008.69
2018-05-08T04:29:28.444Z,1008.69
2018-05-08T04:30:38.629Z,1008.66
2018-05-08T04:31:47.815Z,1008.66
2018-05-08T04:32:56.721Z,1008.63
2018-05-08T04:34:06.486Z,1008.67
2018-05-08T04:35:16.261Z,1008.61
2018-05-08T04:36:26.013Z,1008.65
2018-05-08T04:37:36.672Z,1008.67
2018-05-08T04:38:46.385Z,1008.64
2018-05-08T04:39:55.564Z,1008.65
2018-05-08T04:41:05.445Z,1008.61
2018-05-08T04:42:15.284Z,1008.65
2018-05-08T04:43:25.245Z,1008.62
2018-05-08T04:44:34.901Z,1008.62
2018-05-08T04:45:44.351Z,1008.62
2018-05-08T04:46:53.785Z,1008.62
2018-05-08T04:48:03.217Z,1008.61
2018-05-08T04:49:12.899Z,1008.59
2018-05-08T04:50:23.081Z,1008.59
2018-05-08T04:51:33.268Z,1008.62
2018-05-08T04:52:43.142Z,1008.6
2018-05-08T04:53:53.444Z,1008.64
2018-05-08T04:55:02.616Z,1008.63
2018-05-08T04:56:12.740Z,1008.56
2018-05-08T04:57:22.170Z,1008.58
2018-05-08T04:58:32.293Z,1008.55
2018-05-08T04:59:41.577Z,1008.6
2018-05-08T05:00:51.495Z,1008.55
2018-05-08T05:02:01.254Z,1008.57
2018-05-08T05:03:10.703Z,1008.55
2018-05-08T05:04:20.372Z,1008.53
2018-05-08T05:05:29.305Z,1008.57
2018-05-08T05:06:39.043Z,1008.52
2018-05-08T05:07:48.223Z,1008.53
2018-05-08T05:08:57.409Z,1008.55
2018-05-08T05:10:06.597Z,1008.53
2018-05-08T05:11:16.540Z,1008.56
2018-05-08T05:12:25.729Z,1008.55
2018-05-08T05:13:35.432Z,1008.6
2018-05-08T05:14:45.105Z,1008.55
2018-05-08T05:15:54.785Z,1008.56
2018-05-08T05:17:04.479Z,1008.58
2018-05-08T05:18:13.391Z,1008.57
2018-05-08T05:19:23.123Z,1008.55
2018-05-08T05:20:32.620Z,1008.55
2018-05-08T05:21:42.082Z,1008.54
2018-05-08T05:22:51.548Z,1008.53
2018-05-08T05:24:01.327Z,1008.53
2018-05-08T05:25:10.769Z,1008.52
2018-05-08T05:26:20.482Z,1008.53
2018-05-08T05:27:30.202Z,1008.54
2018-05-08T05:28:39.413Z,1008.49
2018-05-08T05:29:48.596Z,1008.52
2018-05-08T05:30:58.052Z,1008.49
2018-05-08T05:32:07.226Z,1008.48
2018-05-08T05:33:17.238Z,1008.48
2018-05-08T05:34:26.919Z,1008.46
2018-05-08T05:35:36.076Z,1008.46
2018-05-08T05:36:45.521Z,1008.43
2018-05-08T05:37:54.722Z,1008.43
2018-05-08T05:39:04.457Z,1008.47
2018-05-08T05:40:14.160Z,1008.43
2018-05-08T05:41:24.107Z,1008.45
2018-05-08T05:42:33.310Z,1008.4
2018-05-08T05:43:43.628Z,1008.4
2018-05-08T05:44:52.828Z,1008.4
2018-05-08T05:46:02.276Z,1008.38
2018-05-08T05:47:11.973Z,1008.41
2018-05-08T05:48:21.486Z,1008.4
2018-05-08T05:49:30.399Z,1008.4
2018-05-08T05:50:40.117Z,1008.41
2018-05-08T05:51:49.281Z,1008.42
2018-05-08T05:52:59.268Z,1008.4
2018-05-08T05:54:08.427Z,1008.43
2018-05-08T05:55:18.127Z,1008.38
2018-05-08T05:56:27.535Z,1008.42
2018-05-08T05:57:36.991Z,1008.38
2018-05-08T05:58:46.688Z,1008.38
2018-05-08T05:59:55.612Z,1008.35
2018-05-08T06:01:05.482Z,1008.32
2018-05-08T06:02:14.917Z,1008.3
2018-05-08T06:03:24.338Z,1008.34
2018-05-08T06:04:33.813Z,1008.31
2018-05-08T06:05:43.536Z,1008.3
2018-05-08T06:06:53.926Z,1008.29
2018-05-08T06:08:03.096Z,1008.33
2018-05-08T06:09:12.595Z,1008.31
2018-05-08T06:10:21.808Z,1008.28
2018-05-08T06:11:31.025Z,1008.27
2018-05-08T06:12:39.979Z,1008.24
2018-05-08T06:13:49.439Z,1008.25
2018-05-08T06:14:58.634Z,1008.24
2018-05-08T06:16:09.136Z,1008.21
2018-05-08T06:17:18.198Z,1008.2
2018-05-08T06:18:28.019Z,1008.21
2018-05-08T06:19:37.749Z,1008.22
2018-05-08T06:20:47.077Z,1008.2
2018-05-08T06:21:56.554Z,1008.12
2018-05-08T06:23:06.287Z,1008.21
2018-05-08T06:24:15.709Z,1008.2
2018-05-08T06:25:25.425Z,1008.15
2018-05-08T06:26:34.748Z,1008.19
2018-05-08T06:27:44.844Z,1008.17
2018-05-08T06:28:54.027Z,1008.18
2018-05-08T06:30:03.468Z,1008.16
2018-05-08T06:31:12.914Z,1008.15
2018-05-08T06:32:22.359Z,1008.19
2018-05-08T06:33:31.567Z,1008.19
2018-05-08T06:34:40.732Z,1008.18
2018-05-08T06:35:50.666Z,1008.17
2018-05-08T06:37:00.089Z,1008.19
2018-05-08T06:38:09.003Z,1008.19
2018-05-08T06:39:18.707Z,1008.18
2018-05-08T06:40:28.660Z,1008.18
2018-05-08T06:41:38.916Z,1008.14
2018-05-08T06:42:48.136Z,1008.17
2018-05-08T06:43:57.573Z,1008.16
2018-05-08T06:45:07.069Z,1008.13
2018-05-08T06:46:17.528Z,1008.1
2018-05-08T06:47:27.119Z,1008.07
2018-05-08T06:48:36.805Z,1008.09
2018-05-08T06:49:46.568Z,1008.07
2018-05-08T06:50:57.054Z,1008.1
2018-05-08T06:52:06.261Z,1008.11
2018-05-08T06:53:15.760Z,1008.08
2018-05-08T06:54:25.222Z,1008.08
2018-05-08T06:55:34.670Z,1008.07
2018-05-08T06:56:44.384Z,1008.03
2018-05-08T06:57:53.829Z,1008.08
2018-05-08T06:59:03.317Z,1008.12
2018-05-08T07:00:12.783Z,1008.09
2018-05-08T07:01:22.746Z,1008.1
2018-05-08T07:02:32.688Z,1008.09
2018-05-08T07:03:41.874Z,1008.1
2018-05-08T07:04:51.040Z,1008.05
2018-05-08T07:05:59.942Z,1008.05
2018-05-08T07:07:09.464Z,1008.11
2018-05-08T07:08:18.637Z,1008.1
2018-05-08T07:09:28.068Z,1008.11
2018-05-08T07:10:37.481Z,1008.08
2018-05-08T07:11:46.956Z,1008.04
2018-05-08T07:12:56.618Z,1008.05
2018-05-08T07:14:06.285Z,1008.05
2018-05-08T07:15:15.962Z,1008.04
2018-05-08T07:16:25.701Z,1008.05
2018-05-08T07:17:35.453Z,1008.04
2018-05-08T07:18:44.866Z,1008.03
2018-05-08T07:19:54.269Z,1008.05
2018-05-08T07:21:04.249Z,1008.04
2018-05-08T07:22:14.086Z,1008.01
2018-05-08T07:23:23.283Z,1008.02
2018-05-08T07:24:33.005Z,1008.01
2018-05-08T07:25:41.917Z,1007.98
2018-05-08T07:26:51.692Z,1007.97
2018-05-08T07:28:01.589Z,1007.93
2018-05-08T07:29:11.290Z,1007.94
2018-05-08T07:30:20.873Z,1007.97
2018-05-08T07:31:30.304Z,1007.96
2018-05-08T07:32:39.466Z,1007.95
2018-05-08T07:33:49.422Z,1007.94
2018-05-08T07:34:58.585Z,1007.96
2018-05-08T07:36:07.801Z,1007.92
2018-05-08T07:37:16.999Z,1007.89
2018-05-08T07:38:25.965Z,1007.86
2018-05-08T07:39:35.170Z,1007.89
2018-05-08T07:40:45.200Z,1007.9
2018-05-08T07:41:54.882Z,1007.86
2018-05-08T07:43:04.369Z,1007.87
2018-05-08T07:44:13.784Z,1007.94
2018-05-08T07:45:23.282Z,1007.88
2018-05-08T07:46:33.401Z,1007.89
2018-05-08T07:47:43.133Z,1007.92
2018-05-08T07:48:52.302Z,1007.94
2018-05-08T07:50:02.033Z,1007.98
2018-05-08T07:51:11.480Z,1007.95
2018-05-08T07:52:20.666Z,1007.95
2018-05-08T07:53:29.585Z,1007.94
2018-05-08T07:54:39.003Z,1007.94
2018-05-08T07:55:48.435Z,1007.89
2018-05-08T07:56:58.136Z,1007.9
2018-05-08T07:58:07.306Z,1007.89
2018-05-08T07:59:16.809Z,1007.87
2018-05-08T08:00:25.996Z,1007.84
2018-05-08T08:01:35.417Z,1007.87
2018-05-08T08:02:44.589Z,1007.88
2018-05-08T08:03:54.133Z,1007.88
2018-05-08T08:05:03.856Z,1007.91
2018-05-08T08:06:13.316Z,1007.87
2018-05-08T08:07:23.378Z,1007.91
2018-05-08T08:08:32.642Z,1007.88
2018-05-08T08:09:41.889Z,1007.92
2018-05-08T08:10:51.319Z,1007.9
2018-05-08T08:12:01.025Z,1007.9
2018-05-08T08:13:10.197Z,1007.88
2018-05-08T08:14:20.149Z,1007.85
2018-05-08T08:15:29.051Z,1007.87
2018-05-08T08:16:38.257Z,1007.83
2018-05-08T08:17:47.730Z,1007.82
2018-05-08T08:18:57.172Z,1007.8
2018-05-08T08:20:06.954Z,1007.77
2018-05-08T08:21:17.024Z,1007.77
2018-05-08T08:22:27.007Z,1007.75
2018-05-08T08:23:36.598Z,1007.73
2018-05-08T08:24:46.040Z,1007.74
2018-05-08T08:25:55.730Z,1007.7
2018-05-08T08:27:05.179Z,1007.71
2018-05-08T08:28:14.646Z,1007.69
2018-05-08T08:29:24.056Z,1007.71
2018-05-08T08:30:33.518Z,1007.66
2018-05-08T08:31:42.673Z,1007.68
2018-05-08T08:32:51.852Z,1007.64
2018-05-08T08:34:01.013Z,1007.63
2018-05-08T08:35:10.441Z,1007.64
2018-05-08T08:36:19.598Z,1007.57
2018-05-08T08:37:28.760Z,1007.61
2018-05-08T08:38:38.195Z,1007.59
2018-05-08T08:39:48.146Z,1007.58
2018-05-08T08:40:57.854Z,1007.57
2018-05-08T08:42:07.164Z,1007.54
2018-05-08T08:43:17.041Z,1007.54
2018-05-08T08:44:27.043Z,1007.56
2018-05-08T08:45:37.024Z,1007.58
2018-05-08T08:46:46.230Z,1007.58
2018-05-08T08:47:55.198Z,1007.55
2018-05-08T08:49:05.312Z,1007.54
2018-05-08T08:50:14.742Z,1007.47
2018-05-08T08:51:24.181Z,1007.51
2018-05-08T08:52:33.653Z,1007.5
2018-05-08T08:53:43.327Z,1007.49
2018-05-08T08:54:53.020Z,1007.52
2018-05-08T08:56:02.981Z,1007.51
2018-05-08T08:57:12.928Z,1007.52
2018-05-08T08:58:22.664Z,1007.45
2018-05-08T08:59:32.086Z,1007.47
2018-05-08T09:00:41.259Z,1007.45
2018-05-08T09:01:50.742Z,1007.45
2018-05-08T09:03:00.168Z,1007.45
2018-05-08T09:04:09.352Z,1007.45
2018-05-08T09:05:19.082Z,1007.48
2018-05-08T09:06:28.537Z,1007.42
2018-05-08T09:07:38.027Z,1007.4
2018-05-08T09:08:47.668Z,1007.38
2018-05-08T09:09:57.120Z,1007.35
2018-05-08T09:11:06.869Z,1007.37
2018-05-08T09:12:16.466Z,1007.37
2018-05-08T09:13:25.647Z,1007.34
2018-05-08T09:14:35.119Z,1007.35
2018-05-08T09:15:44.792Z,1007.31
2018-05-08T09:16:54.493Z,1007.31
2018-05-08T09:18:03.927Z,1007.28
2018-05-08T09:19:13.093Z,1007.25
2018-05-08T09:20:22.772Z,1007.26
2018-05-08T09:21:31.932Z,1007.31
2018-05-08T09:22:41.339Z,1007.32
2018-05-08T09:23:51.329Z,1007.25
2018-05-08T09:25:01.257Z,1007.22
2018-05-08T09:26:10.168Z,1007.19
2018-05-08T09:27:19.573Z,1007.16
2018-05-08T09:28:29.153Z,1007.2
2018-05-08T09:29:38.622Z,1007.15
2018-05-08T09:30:47.771Z,1007.18
2018-05-08T09:31:56.923Z,1007.14
2018-05-08T09:33:06.085Z,1007.16
2018-05-08T09:34:15.267Z,1007.12
2018-05-08T09:35:24.428Z,1007.08
2018-05-08T09:36:33.862Z,1007.08
2018-05-08T09:37:43.546Z,1007.07
2018-05-08T09:38:53.407Z,1006.99
2018-05-08T09:40:02.825Z,1006.95
2018-05-08T09:41:12.026Z,1006.96
2018-05-08T09:42:21.449Z,1006.93
2018-05-08T09:43:30.638Z,1006.92
2018-05-08T09:44:40.318Z,1006.9
2018-05-08T09:45:49.726Z,1006.92
2018-05-08T09:46:59.161Z,1006.92
2018-05-08T09:48:08.375Z,1006.88
2018-05-08T09:49:18.081Z,1006.84
2018-05-08T09:50:27.575Z,1006.82
2018-05-08T09:51:36.771Z,1006.82
2018-05-08T09:52:46.196Z,1006.82
2018-05-08T09:53:55.890Z,1006.78
2018-05-08T09:55:05.339Z,1006.82
2018-05-08T09:56:14.493Z,1006.75
2018-05-08T09:57:23.925Z,1006.78
2018-05-08T09:58:33.670Z,1006.76
2018-05-08T09:59:43.119Z,1006.73
2018-05-08T10:00:52.822Z,1006.69
2018-05-08T10:02:02.988Z,1006.68
2018-05-08T10:03:12.164Z,1006.67
2018-05-08T10:04:21.641Z,1006.62
2018-05-08T10:05:31.053Z,1006.63
2018-05-08T10:06:40.496Z,1006.64
2018-05-08T10:07:49.723Z,1006.63
2018-05-08T10:08:58.888Z,1006.57
2018-05-08T10:10:08.323Z,1006.58
2018-05-08T10:11:17.766Z,1006.53
2018-05-08T10:12:27.194Z,1006.49
2018-05-08T10:13:36.407Z,1006.52
2018-05-08T10:14:46.091Z,1006.54
2018-05-08T10:15:55.253Z,1006.5
2018-05-08T10:17:04.677Z,1006.5
2018-05-08T10:18:13.901Z,1006.48
2018-05-08T10:19:23.337Z,1006.5
2018-05-08T10:20:33.120Z,1006.44
2018-05-08T10:21:43.369Z,1006.45
2018-05-08T10:22:52.554Z,1006.45
2018-05-08T10:24:02.309Z,1006.42
2018-05-08T10:25:11.493Z,1006.43
2018-05-08T10:26:21.167Z,1006.4
2018-05-08T10:27:30.079Z,1006.36
2018-05-08T10:28:39.499Z,1006.34
2018-05-08T10:29:48.665Z,1006.35
2018-05-08T10:30:58.629Z,1006.26
2018-05-08T10:32:08.325Z,1006.28
2018-05-08T10:33:17.604Z,1006.26
2018-05-08T10:34:27.058Z,1006.26
2018-05-08T10:35:36.256Z,1006.22
2018-05-08T10:36:45.420Z,1006.25
2018-05-08T10:37:55.136Z,1006.19
2018-05-08T10:39:04.574Z,1006.22
2018-05-08T10:40:14.020Z,1006.19
2018-05-08T10:41:23.725Z,1006.17
2018-05-08T10:42:33.434Z,1006.2
2018-05-08T10:43:42.980Z,1006.22
2018-05-08T10:44:52.455Z,1006.17
2018-05-08T10:46:02.151Z,1006.16
2018-05-08T10:47:11.839Z,1006.15
2018-05-08T10:48:21.293Z,1006.1
2018-05-08T10:49:30.462Z,1006.12
2018-05-08T10:50:40.182Z,1006.03
2018-05-08T10:51:49.095Z,1006.05
2018-05-08T10:52:58.286Z,1006.07
2018-05-08T10:54:07.775Z,1006.06
2018-05-08T10:55:16.955Z,1006.05
2018-05-08T10:56:26.937Z,1006.05
2018-05-08T10:57:36.654Z,1006.03
2018-05-08T10:58:46.125Z,1006.04
2018-05-08T10:59:55.840Z,1005.95
2018-05-08T11:01:05.024Z,1005.96
2018-05-08T11:02:13.930Z,1005.92
2018-05-08T11:03:22.844Z,1005.93
2018-05-08T11:04:32.282Z,1005.88
2018-05-08T11:05:41.218Z,1005.85
2018-05-08T11:06:50.662Z,1005.86
2018-05-08T11:07:59.847Z,1005.88
2018-05-08T11:09:09.020Z,1005.8
2018-05-08T11:10:18.294Z,1005.83
2018-05-08T11:11:27.784Z,1005.86
2018-05-08T11:12:37.478Z,1005.87
2018-05-08T11:13:46.907Z,1005.81
2018-05-08T11:14:56.093Z,1005.75
2018-05-08T11:16:05.550Z,1005.76
2018-05-08T11:17:15.260Z,1005.74
2018-05-08T11:18:24.713Z,1005.79
2018-05-08T11:19:34.406Z,1005.75
2018-05-08T11:20:44.560Z,1005.75
2018-05-08T11:21:53.991Z,1005.72
2018-05-08T11:23:03.151Z,1005.71
2018-05-08T11:24:13.512Z,1005.7
2018-05-08T11:25:22.941Z,1005.66
2018-05-08T11:26:31.865Z,1005.66
2018-05-08T11:27:41.813Z,1005.65
2018-05-08T11:28:50.982Z,1005.67
2018-05-08T11:30:00.426Z,1005.69
2018-05-08T11:31:10.123Z,1005.68
2018-05-08T11:32:19.855Z,1005.61
2018-05-08T11:33:29.280Z,1005.62
2018-05-08T11:34:37.927Z,1005.56
2018-05-08T11:35:47.355Z,1005.6
2018-05-08T11:36:56.512Z,1005.56
2018-05-08T11:38:06.461Z,1005.57
2018-05-08T11:39:16.294Z,1005.61
2018-05-08T11:40:25.944Z,1005.59
2018-05-08T11:41:35.095Z,1005.59
2018-05-08T11:42:44.772Z,1005.57
2018-05-08T11:43:54.499Z,1005.54
2018-05-08T11:45:03.924Z,1005.54
2018-05-08T11:46:13.346Z,1005.49
2018-05-08T11:47:22.809Z,1005.51
2018-05-08T11:48:32.235Z,1005.43
2018-05-08T11:49:41.133Z,1005.45
2018-05-08T11:50:50.568Z,1005.4
2018-05-08T11:51:59.979Z,1005.44
2018-05-08T11:53:09.426Z,1005.45
2018-05-08T11:54:18.341Z,1005.43
2018-05-08T11:55:27.558Z,1005.43
2018-05-08T11:56:37.260Z,1005.38
2018-05-08T11:57:46.684Z,1005.33
2018-05-08T11:58:56.383Z,1005.34
2018-05-08T12:00:05.823Z,1005.35
2018-05-08T12:01:14.747Z,1005.34
2018-05-08T12:02:23.405Z,1005.31
2018-05-08T12:03:33.165Z,1005.25
2018-05-08T12:04:42.337Z,1005.29
2018-05-08T12:05:51.495Z,1005.21
2018-05-08T12:07:01.187Z,1005.27
2018-05-08T12:08:11.392Z,1005.21
2018-05-08T12:09:21.124Z,1005.2
2018-05-08T12:10:30.533Z,1005.14
2018-05-08T12:11:39.443Z,1005.15
2018-05-08T12:12:49.409Z,1005.18
2018-05-08T12:13:58.307Z,1005.16
2018-05-08T12:15:07.488Z,1005.15
2018-05-08T12:16:17.187Z,1005.16
2018-05-08T12:17:26.120Z,1005.17
2018-05-08T12:18:35.314Z,1005.14
2018-05-08T12:19:44.497Z,1005.16
2018-05-08T12:20:53.685Z,1005.1
2018-05-08T12:22:03.126Z,1005.08
2018-05-08T12:23:12.808Z,1005.07
2018-05-08T12:24:22.502Z,1005.08
2018-05-08T12:25:32.454Z,1005.07
2018-05-08T12:26:42.278Z,1005.02
2018-05-08T12:27:51.971Z,1005.02
2018-05-08T12:29:01.915Z,1005.02
2018-05-08T12:30:11.885Z,1004.99
2018-05-08T12:31:21.325Z,1005.01
2018-05-08T12:32:30.790Z,1005.05
2018-05-08T12:33:40.568Z,1005.03
2018-05-08T12:34:50.217Z,1005.04
2018-05-08T12:35:59.885Z,1005
2018-05-08T12:37:09.739Z,1004.95
2018-05-08T12:38:19.183Z,1004.9
2018-05-08T12:39:28.865Z,1004.92
2018-05-08T12:40:38.576Z,1004.83
2018-05-08T12:41:48.311Z,1004.88
2018-05-08T12:42:57.844Z,1004.89
2018-05-08T12:44:07.191Z,1004.89
2018-05-08T12:45:16.613Z,1004.95
2018-05-08T12:46:26.130Z,1004.89
2018-05-08T12:47:35.563Z,1004.89
2018-05-08T12:48:45.301Z,1004.82
2018-05-08T12:49:54.759Z,1004.85
2018-05-08T12:51:04.792Z,1004.81
2018-05-08T12:52:14.478Z,1004.78
2018-05-08T12:53:24.209Z,1004.74
2018-05-08T12:54:33.490Z,1004.71
2018-05-08T12:55:42.655Z,1004.74
2018-05-08T12:56:52.097Z,1004.77
2018-05-08T12:58:01.670Z,1004.83
2018-05-08T12:59:11.379Z,1004.76
2018-05-08T13:00:21.079Z,1004.76
2018-05-08T13:01:30.754Z,1004.75
2018-05-08T13:02:40.438Z,1004.72
2018-05-08T13:03:49.875Z,1004.68
2018-05-08T13:04:59.326Z,1004.71
2018-05-08T13:06:08.510Z,1004.61
2018-05-08T13:07:17.667Z,1004.64
2018-05-08T13:08:27.369Z,1004.62
2018-05-08T13:09:37.063Z,1004.58
2018-05-08T13:10:46.766Z,1004.6
2018-05-08T13:11:56.607Z,1004.62
2018-05-08T13:13:06.080Z,1004.61
2018-05-08T13:14:15.760Z,1004.58
2018-05-08T13:15:25.192Z,1004.59
2018-05-08T13:16:34.888Z,1004.57
2018-05-08T13:17:44.333Z,1004.53
2018-05-08T13:18:53.544Z,1004.49
2018-05-08T13:20:02.735Z,1004.45
2018-05-08T13:21:12.698Z,1004.48
2018-05-08T13:22:22.372Z,1004.48
2018-05-08T13:23:32.340Z,1004.5
2018-05-08T13:24:42.027Z,1004.46
2018-05-08T13:25:51.965Z,1004.45
2018-05-08T13:27:01.735Z,1004.41
2018-05-08T13:28:10.899Z,1004.41
2018-05-08T13:29:20.074Z,1004.44
2018-05-08T13:30:30.075Z,1004.36
2018-05-08T13:31:39.783Z,1004.38
2018-05-08T13:32:49.253Z,1004.38
2018-05-08T13:33:58.952Z,1004.39
2018-05-08T13:35:08.653Z,1004.37
2018-05-08T13:36:17.568Z,1004.35
2018-05-08T13:37:26.989Z,1004.38
2018-05-08T13:38:36.731Z,1004.36
2018-05-08T13:39:46.180Z,1004.29
2018-05-08T13:40:55.607Z,1004.29
2018-05-08T13:42:05.295Z,1004.26
2018-05-08T13:43:14.740Z,1004.3
2018-05-08T13:44:24.465Z,1004.32
2018-05-08T13:45:33.897Z,1004.36
2018-05-08T13:46:43.574Z,1004.31
2018-05-08T13:47:52.994Z,1004.27
2018-05-08T13:49:02.284Z,1004.28
2018-05-08T13:50:11.736Z,1004.27
2018-05-08T13:51:21.809Z,1004.23
2018-05-08T13:52:31.506Z,1004.28
2018-05-08T13:53:40.946Z,1004.23
2018-05-08T13:54:50.155Z,1004.2
2018-05-08T13:55:59.376Z,1004.18
2018-05-08T13:57:08.585Z,1004.18
2018-05-08T13:58:18.025Z,1004.17
2018-05-08T13:59:27.524Z,1004.11
2018-05-08T14:00:37.213Z,1004.14
2018-05-08T14:01:46.963Z,1004.12
2018-05-08T14:02:56.488Z,1004.11
2018-05-08T14:04:06.526Z,1004.14
2018-05-08T14:05:16.218Z,1004.06